sensor_id;sensor_type;location;lat;lon;timestamp;pressure;altitude;pressure_sealevel;temperature;humidity
57068;BME280;43391;47.448;18.904;2023-11-22T00:03:24;99399.78;;;2.14;100.00
57068;BME280;43391;47.448;18.904;2023-11-22T00:11:44;99417.72;;;2.14;100.00
57068;BME280;43391;47.448;18.904;2023-11-22T00:20:05;99426.56;;;2.41;100.00
57068;BME280;43391;47.448;18.904;2023-11-22T00:28:25;99439.31;;;2.44;100.00
57068;BME280;43391;47.448;18.904;2023-11-22T00:36:46;99432.06;;;2.21;100.00
57068;BME280;43391;47.448;18.904;2023-11-22T00:45:06;99435.81;;;2.03;100.00
57068;BME280;43391;47.448;18.904;2023-11-22T00:53:27;99430.84;;;1.93;100.00
57068;BME280;43391;47.448;18.904;2023-11-22T01:01:47;99427.66;;;1.82;100.00
57068;BME280;43391;47.448;18.904;2023-11-22T01:10:07;99433.13;;;1.60;100.00
57068;BME280;43391;47.448;18.904;2023-11-22T01:18:27;99462.16;;;1.59;100.00
57068;BME280;43391;47.448;18.904;2023-11-22T01:26:48;99460.19;;;1.73;100.00
57068;BME280;43391;47.448;18.904;2023-11-22T01:35:08;99461.44;;;2.03;100.00
57068;BME280;43391;47.448;18.904;2023-11-22T01:43:29;99461.19;;;2.15;100.00
57068;BME280;43391;47.448;18.904;2023-11-22T01:51:49;99460.34;;;2.16;100.00
57068;BME280;43391;47.448;18.904;2023-11-22T02:00:10;99464.44;;;2.25;100.00
57068;BME280;43391;47.448;18.904;2023-11-22T02:08:35;99471.09;;;2.35;100.00
57068;BME280;43391;47.448;18.904;2023-11-22T02:16:55;99476.16;;;2.38;100.00
57068;BME280;43391;47.448;18.904;2023-11-22T02:25:16;99485.19;;;2.58;100.00
57068;BME280;43391;47.448;18.904;2023-11-22T02:33:36;99483.53;;;2.56;100.00
57068;BME280;43391;47.448;18.904;2023-11-22T02:41:56;99488.69;;;2.52;100.00
57068;BME280;43391;47.448;18.904;2023-11-22T02:50:16;99498.31;;;2.39;100.00
57068;BME280;43391;47.448;18.904;2023-11-22T02:58:36;99517.28;;;2.31;100.00
57068;BME280;43391;47.448;18.904;2023-11-22T03:06:57;99534.38;;;2.30;100.00
57068;BME280;43391;47.448;18.904;2023-11-22T03:15:17;99535.84;;;2.44;100.00
57068;BME280;43391;47.448;18.904;2023-11-22T03:23:37;99545.16;;;2.49;100.00
57068;BME280;43391;47.448;18.904;2023-11-22T03:32:00;99549.28;;;2.57;100.00
57068;BME280;43391;47.448;18.904;2023-11-22T03:40:20;99551.72;;;2.63;100.00
57068;BME280;43391;47.448;18.904;2023-11-22T03:48:41;99559.22;;;2.74;100.00
57068;BME280;43391;47.448;18.904;2023-11-22T03:57:01;99568.69;;;2.70;100.00
57068;BME280;43391;47.448;18.904;2023-11-22T04:05:22;99575.38;;;2.77;100.00
57068;BME280;43391;47.448;18.904;2023-11-22T04:13:42;99580.50;;;2.79;100.00
57068;BME280;43391;47.448;18.904;2023-11-22T04:22:02;99580.44;;;2.82;100.00
57068;BME280;43391;47.448;18.904;2023-11-22T04:30:22;99582.19;;;2.78;100.00
57068;BME280;43391;47.448;18.904;2023-11-22T04:38:43;99593.88;;;2.95;100.00
57068;BME280;43391;47.448;18.904;2023-11-22T04:47:03;99602.22;;;3.05;100.00
57068;BME280;43391;47.448;18.904;2023-11-22T04:55:24;99608.78;;;3.18;100.00
57068;BME280;43391;47.448;18.904;2023-11-22T05:03:45;99605.44;;;3.15;100.00
57068;BME280;43391;47.448;18.904;2023-11-22T05:12:05;99618.25;;;3.16;100.00
57068;BME280;43391;47.448;18.904;2023-11-22T05:20:25;99630.47;;;3.03;100.00
57068;BME280;43391;47.448;18.904;2023-11-22T05:28:46;99631.31;;;3.04;100.00
57068;BME280;43391;47.448;18.904;2023-11-22T05:37:07;99656.25;;;2.96;100.00
57068;BME280;43391;47.448;18.904;2023-11-22T05:45:27;99670.84;;;2.92;100.00
57068;BME280;43391;47.448;18.904;2023-11-22T05:53:47;99681.53;;;2.67;100.00
57068;BME280;43391;47.448;18.904;2023-11-22T06:02:08;99687.63;;;2.60;100.00
57068;BME280;43391;47.448;18.904;2023-11-22T06:10:28;99707.16;;;2.65;100.00
57068;BME280;43391;47.448;18.904;2023-11-22T06:18:48;99721.53;;;2.76;100.00
57068;BME280;43391;47.448;18.904;2023-11-22T06:27:09;99737.53;;;2.92;100.00
57068;BME280;43391;47.448;18.904;2023-11-22T06:35:29;99751.25;;;2.88;100.00
57068;BME280;43391;47.448;18.904;2023-11-22T06:43:49;99761.34;;;3.00;100.00
57068;BME280;43391;47.448;18.904;2023-11-22T06:52:09;99773.03;;;3.15;100.00
57068;BME280;43391;47.448;18.904;2023-11-22T07:00:30;99785.59;;;3.32;100.00
57068;BME280;43391;47.448;18.904;2023-11-22T07:08:50;99798.81;;;3.58;100.00
57068;BME280;43391;47.448;18.904;2023-11-22T07:17:11;99824.03;;;3.83;100.00
57068;BME280;43391;47.448;18.904;2023-11-22T07:25:31;99827.16;;;3.99;100.00
57068;BME280;43391;47.448;18.904;2023-11-22T07:33:51;99831.31;;;4.05;100.00
57068;BME280;43391;47.448;18.904;2023-11-22T07:42:12;99826.59;;;4.27;100.00
57068;BME280;43391;47.448;18.904;2023-11-22T07:50:32;99859.19;;;4.66;100.00
57068;BME280;43391;47.448;18.904;2023-11-22T07:58:53;99856.81;;;4.96;100.00
57068;BME280;43391;47.448;18.904;2023-11-22T08:07:13;99863.41;;;5.08;100.00
57068;BME280;43391;47.448;18.904;2023-11-22T08:15:34;99879.28;;;5.26;100.00
57068;BME280;43391;47.448;18.904;2023-11-22T08:23:55;99879.13;;;4.96;100.00
57068;BME280;43391;47.448;18.904;2023-11-22T08:32:15;99893.47;;;5.42;100.00
57068;BME280;43391;47.448;18.904;2023-11-22T08:40:36;99891.28;;;5.96;100.00
57068;BME280;43391;47.448;18.904;2023-11-22T08:48:59;99916.19;;;5.96;100.00
57068;BME280;43391;47.448;18.904;2023-11-22T08:57:20;99921.03;;;6.42;100.00
57068;BME280;43391;47.448;18.904;2023-11-22T09:05:40;99922.69;;;6.74;100.00
57068;BME280;43391;47.448;18.904;2023-11-22T09:14:00;99923.91;;;6.61;100.00
57068;BME280;43391;47.448;18.904;2023-11-22T09:22:24;99943.38;;;6.73;100.00
57068;BME280;43391;47.448;18.904;2023-11-22T09:30:46;99942.91;;;6.88;100.00
57068;BME280;43391;47.448;18.904;2023-11-22T09:39:08;99964.56;;;6.83;100.00
57068;BME280;43391;47.448;18.904;2023-11-22T09:47:29;99972.06;;;7.21;100.00
57068;BME280;43391;47.448;18.904;2023-11-22T09:55:52;99984.41;;;7.11;100.00
57068;BME280;43391;47.448;18.904;2023-11-22T10:04:12;99989.06;;;6.69;100.00
57068;BME280;43391;47.448;18.904;2023-11-22T10:12:32;100004.97;;;6.84;100.00
57068;BME280;43391;47.448;18.904;2023-11-22T10:20:56;100007.53;;;6.84;100.00
57068;BME280;43391;47.448;18.904;2023-11-22T10:29:24;100008.88;;;6.35;100.00
57068;BME280;43391;47.448;18.904;2023-11-22T10:37:45;100027.72;;;6.37;100.00
57068;BME280;43391;47.448;18.904;2023-11-22T10:46:06;100048.13;;;5.74;100.00
57068;BME280;43391;47.448;18.904;2023-11-22T10:54:26;100050.00;;;5.28;100.00
57068;BME280;43391;47.448;18.904;2023-11-22T11:02:46;100056.59;;;4.99;100.00
57068;BME280;43391;47.448;18.904;2023-11-22T11:11:09;100076.03;;;5.14;100.00
57068;BME280;43391;47.448;18.904;2023-11-22T11:19:30;100075.97;;;5.15;100.00
57068;BME280;43391;47.448;18.904;2023-11-22T11:27:56;100085.00;;;5.37;100.00
57068;BME280;43391;47.448;18.904;2023-11-22T11:36:27;100089.88;;;5.89;100.00
57068;BME280;43391;47.448;18.904;2023-11-22T11:45:06;100095.16;;;6.55;100.00
57068;BME280;43391;47.448;18.904;2023-11-22T11:53:27;100095.84;;;8.13;100.00
57068;BME280;43391;47.448;18.904;2023-11-22T12:01:51;100101.78;;;7.59;100.00
57068;BME280;43391;47.448;18.904;2023-11-22T12:10:12;100100.06;;;7.29;100.00
57068;BME280;43391;47.448;18.904;2023-11-22T12:18:41;100103.81;;;7.49;100.00
57068;BME280;43391;47.448;18.904;2023-11-22T12:27:03;100104.88;;;7.70;100.00
57068;BME280;43391;47.448;18.904;2023-11-22T12:35:26;100108.75;;;8.40;98.62
57068;BME280;43391;47.448;18.904;2023-11-22T12:44:01;100130.72;;;8.55;97.70
57068;BME280;43391;47.448;18.904;2023-11-22T12:52:25;100145.81;;;7.56;100.00
57068;BME280;43391;47.448;18.904;2023-11-22T13:00:46;100148.94;;;7.36;100.00
57068;BME280;43391;47.448;18.904;2023-11-22T13:09:07;100155.75;;;7.38;100.00
57068;BME280;43391;47.448;18.904;2023-11-22T13:17:27;100159.22;;;7.39;100.00
57068;BME280;43391;47.448;18.904;2023-11-22T13:25:48;100167.63;;;7.46;100.00
57068;BME280;43391;47.448;18.904;2023-11-22T13:34:08;100153.94;;;7.42;100.00
57068;BME280;43391;47.448;18.904;2023-11-22T13:42:30;100153.41;;;7.30;100.00
57068;BME280;43391;47.448;18.904;2023-11-22T13:50:51;100171.41;;;7.34;100.00
57068;BME280;43391;47.448;18.904;2023-11-22T13:59:11;100190.44;;;7.29;100.00
57068;BME280;43391;47.448;18.904;2023-11-22T14:07:31;100185.03;;;7.05;100.00
57068;BME280;43391;47.448;18.904;2023-11-22T14:15:51;100182.03;;;6.89;100.00
57068;BME280;43391;47.448;18.904;2023-11-22T14:24:12;100178.56;;;6.90;100.00
57068;BME280;43391;47.448;18.904;2023-11-22T14:32:32;100215.00;;;6.78;100.00
57068;BME280;43391;47.448;18.904;2023-11-22T14:40:54;100232.63;;;6.60;100.00
57068;BME280;43391;47.448;18.904;2023-11-22T14:49:16;100241.50;;;6.48;100.00
57068;BME280;43391;47.448;18.904;2023-11-22T14:57:36;100249.66;;;6.30;100.00
57068;BME280;43391;47.448;18.904;2023-11-22T15:05:57;100245.44;;;6.25;100.00
57068;BME280;43391;47.448;18.904;2023-11-22T15:14:17;100255.47;;;5.97;100.00
57068;BME280;43391;47.448;18.904;2023-11-22T15:22:38;100271.44;;;5.72;100.00
57068;BME280;43391;47.448;18.904;2023-11-22T15:30:58;100269.25;;;5.50;100.00
57068;BME280;43391;47.448;18.904;2023-11-22T15:39:20;100282.59;;;5.25;100.00
57068;BME280;43391;47.448;18.904;2023-11-22T15:47:42;100295.78;;;5.05;100.00
57068;BME280;43391;47.448;18.904;2023-11-22T15:56:05;100333.81;;;4.86;100.00
57068;BME280;43391;47.448;18.904;2023-11-22T16:04:27;100354.59;;;4.72;100.00
57068;BME280;43391;47.448;18.904;2023-11-22T16:12:48;100386.47;;;4.60;100.00
57068;BME280;43391;47.448;18.904;2023-11-22T16:21:08;100376.44;;;4.43;100.00
57068;BME280;43391;47.448;18.904;2023-11-22T16:29:31;100396.31;;;4.23;100.00
57068;BME280;43391;47.448;18.904;2023-11-22T16:37:51;100402.56;;;4.02;100.00
57068;BME280;43391;47.448;18.904;2023-11-22T16:46:11;100407.13;;;3.75;100.00
57068;BME280;43391;47.448;18.904;2023-11-22T16:54:31;100410.69;;;3.58;100.00
57068;BME280;43391;47.448;18.904;2023-11-22T17:02:52;100438.94;;;3.55;100.00
57068;BME280;43391;47.448;18.904;2023-11-22T17:11:18;100418.41;;;3.52;100.00
57068;BME280;43391;47.448;18.904;2023-11-22T17:19:38;100439.09;;;3.35;100.00
57068;BME280;43391;47.448;18.904;2023-11-22T17:27:59;100451.22;;;3.13;100.00
57068;BME280;43391;47.448;18.904;2023-11-22T17:36:19;100466.69;;;3.00;100.00
57068;BME280;43391;47.448;18.904;2023-11-22T17:44:39;100471.88;;;2.83;100.00
57068;BME280;43391;47.448;18.904;2023-11-22T17:52:59;100488.13;;;2.85;100.00
57068;BME280;43391;47.448;18.904;2023-11-22T18:01:20;100489.00;;;2.73;100.00
57068;BME280;43391;47.448;18.904;2023-11-22T18:09:40;100492.44;;;2.74;100.00
57068;BME280;43391;47.448;18.904;2023-11-22T18:18:00;100478.84;;;2.55;100.00
57068;BME280;43391;47.448;18.904;2023-11-22T18:26:20;100496.78;;;2.53;100.00
57068;BME280;43391;47.448;18.904;2023-11-22T18:34:41;100507.91;;;2.54;100.00
57068;BME280;43391;47.448;18.904;2023-11-22T18:43:01;100526.72;;;2.43;100.00
57068;BME280;43391;47.448;18.904;2023-11-22T18:51:22;100524.16;;;2.43;100.00
57068;BME280;43391;47.448;18.904;2023-11-22T18:59:45;100536.09;;;2.39;99.98
57068;BME280;43391;47.448;18.904;2023-11-22T19:08:06;100542.13;;;2.04;99.84
57068;BME280;43391;47.448;18.904;2023-11-22T19:16:27;100550.66;;;1.95;100.00
57068;BME280;43391;47.448;18.904;2023-11-22T19:24:47;100562.59;;;1.87;100.00
57068;BME280;43391;47.448;18.904;2023-11-22T19:33:07;100559.97;;;1.61;99.89
57068;BME280;43391;47.448;18.904;2023-11-22T19:41:28;100566.75;;;1.38;100.00
57068;BME280;43391;47.448;18.904;2023-11-22T19:49:49;100579.56;;;1.38;100.00
57068;BME280;43391;47.448;18.904;2023-11-22T19:58:09;100604.19;;;1.16;100.00
57068;BME280;43391;47.448;18.904;2023-11-22T20:06:30;100619.41;;;0.91;100.00
57068;BME280;43391;47.448;18.904;2023-11-22T20:14:50;100648.25;;;0.73;100.00
57068;BME280;43391;47.448;18.904;2023-11-22T20:23:10;100636.47;;;0.95;100.00
57068;BME280;43391;47.448;18.904;2023-11-22T20:31:36;100617.69;;;0.88;100.00
57068;BME280;43391;47.448;18.904;2023-11-22T20:39:57;100609.84;;;0.59;100.00
57068;BME280;43391;47.448;18.904;2023-11-22T20:48:18;100617.56;;;0.66;100.00
57068;BME280;43391;47.448;18.904;2023-11-22T20:56:38;100623.19;;;0.22;100.00
57068;BME280;43391;47.448;18.904;2023-11-22T21:04:58;100613.72;;;0.11;100.00
57068;BME280;43391;47.448;18.904;2023-11-22T21:13:19;100608.56;;;0.07;100.00
57068;BME280;43391;47.448;18.904;2023-11-22T21:21:40;100627.31;;;0.10;100.00
57068;BME280;43391;47.448;18.904;2023-11-22T21:30:00;100628.28;;;0.22;100.00
57068;BME280;43391;47.448;18.904;2023-11-22T21:38:20;100632.53;;;0.21;100.00
57068;BME280;43391;47.448;18.904;2023-11-22T21:46:41;100644.44;;;0.21;100.00
57068;BME280;43391;47.448;18.904;2023-11-22T21:55:01;100637.63;;;0.21;100.00
57068;BME280;43391;47.448;18.904;2023-11-22T22:03:21;100652.88;;;0.12;100.00
57068;BME280;43391;47.448;18.904;2023-11-22T22:11:42;100664.69;;;0.01;100.00
57068;BME280;43391;47.448;18.904;2023-11-22T22:20:02;100644.16;;;-0.10;100.00
57068;BME280;43391;47.448;18.904;2023-11-22T22:28:22;100645.63;;;-0.30;100.00
57068;BME280;43391;47.448;18.904;2023-11-22T22:36:42;100650.00;;;-0.19;100.00
57068;BME280;43391;47.448;18.904;2023-11-22T22:45:03;100640.50;;;-0.34;100.00
57068;BME280;43391;47.448;18.904;2023-11-22T22:53:23;100626.16;;;-0.23;100.00
57068;BME280;43391;47.448;18.904;2023-11-22T23:01:46;100612.53;;;-0.25;100.00
57068;BME280;43391;47.448;18.904;2023-11-22T23:10:07;100604.13;;;-0.15;100.00
57068;BME280;43391;47.448;18.904;2023-11-22T23:18:29;100584.47;;;-0.25;100.00
57068;BME280;43391;47.448;18.904;2023-11-22T23:26:49;100581.94;;;-0.23;100.00
57068;BME280;43391;47.448;18.904;2023-11-22T23:35:10;100592.94;;;-0.24;100.00
57068;BME280;43391;47.448;18.904;2023-11-22T23:43:36;100612.34;;;-0.42;100.00
57068;BME280;43391;47.448;18.904;2023-11-22T23:51:56;100606.34;;;-0.46;100.00
